createdAt,value
2024-05-09T00:00:40.831Z,12.80
2024-05-09T00:03:10.282Z,12.80
2024-05-09T00:05:40.559Z,12.23
2024-05-09T00:08:09.490Z,12.43
2024-05-09T00:10:38.955Z,12.70
2024-05-09T00:13:08.072Z,12.23
2024-05-09T00:15:36.031Z,14.27
2024-05-09T00:18:04.542Z,13.10
2024-05-09T00:20:38.370Z,11.97
2024-05-09T00:23:12.295Z,12.43
2024-05-09T00:25:42.422Z,13.63
2024-05-09T00:28:09.769Z,11.70
2024-05-09T00:30:37.533Z,13.10
2024-05-09T00:33:06.987Z,13.23
2024-05-09T00:35:35.903Z,13.00
2024-05-09T00:38:03.712Z,11.53
2024-05-09T00:40:41.994Z,12.40
2024-05-09T00:43:14.723Z,11.40
2024-05-09T00:45:43.526Z,11.60
2024-05-09T00:48:14.381Z,11.70
2024-05-09T00:50:44.433Z,11.10
2024-05-09T00:53:12.149Z,11.30
2024-05-09T00:55:39.839Z,11.20
2024-05-09T00:58:08.012Z,11.37
2024-05-09T01:00:39.413Z,10.53
2024-05-09T01:03:10.897Z,10.50
2024-05-09T01:05:40.359Z,10.87
2024-05-09T01:08:08.428Z,10.73
2024-05-09T01:10:36.694Z,11.00
2024-05-09T01:13:05.114Z,10.57
2024-05-09T01:15:32.976Z,11.20
2024-05-09T01:18:01.846Z,12.63
2024-05-09T01:20:39.202Z,10.80
2024-05-09T01:23:09.912Z,12.23
2024-05-09T01:25:37.510Z,13.17
2024-05-09T01:28:04.899Z,12.70
2024-05-09T01:30:35.417Z,12.60
2024-05-09T01:33:09.598Z,11.93
2024-05-09T01:35:41.793Z,11.20
2024-05-09T01:38:12.319Z,11.50
2024-05-09T01:40:40.412Z,11.50
2024-05-09T01:43:09.369Z,12.00
2024-05-09T01:45:37.492Z,10.80
2024-05-09T01:48:05.074Z,13.37
2024-05-09T01:50:38.570Z,13.50
2024-05-09T01:53:12.649Z,11.53
2024-05-09T01:55:40.660Z,11.27
2024-05-09T01:58:08.951Z,11.40
2024-05-09T02:00:40.607Z,12.07
2024-05-09T02:03:13.877Z,12.43
2024-05-09T02:05:44.588Z,10.40
2024-05-09T02:08:21.741Z,11.10
2024-05-09T02:10:50.478Z,10.87
2024-05-09T02:13:18.184Z,11.67
2024-05-09T02:15:45.447Z,12.57
2024-05-09T02:18:13.001Z,11.50
2024-05-09T02:20:41.648Z,13.07
2024-05-09T02:23:09.753Z,12.10
2024-05-09T02:25:37.036Z,11.23
2024-05-09T02:28:04.353Z,11.40
2024-05-09T02:30:39.409Z,11.00
2024-05-09T02:33:14.004Z,9.97
2024-05-09T02:35:43.626Z,9.00
2024-05-09T02:38:11.870Z,9.33
2024-05-09T02:40:40.128Z,9.27
2024-05-09T02:43:09.535Z,9.70
2024-05-09T02:45:38.016Z,9.30
2024-05-09T02:48:06.027Z,9.63
2024-05-09T02:50:38.207Z,10.43
2024-05-09T02:53:07.978Z,10.13
2024-05-09T02:55:35.421Z,9.20
2024-05-09T02:58:02.537Z,9.63
2024-05-09T03:00:38.188Z,10.00
2024-05-09T03:03:09.829Z,9.20
2024-05-09T03:05:39.155Z,9.43
2024-05-09T03:08:06.680Z,11.07
2024-05-09T03:10:36.637Z,10.07
2024-05-09T03:13:14.432Z,9.97
2024-05-09T03:15:44.937Z,10.20
2024-05-09T03:18:12.874Z,9.80
2024-05-09T03:20:40.550Z,10.60
2024-05-09T03:23:09.595Z,11.33
2024-05-09T03:25:38.236Z,11.70
2024-05-09T03:28:05.892Z,10.87
2024-05-09T03:30:40.153Z,9.90
2024-05-09T03:33:14.162Z,11.60
2024-05-09T03:35:42.716Z,10.30
2024-05-09T03:38:09.952Z,9.93
2024-05-09T03:40:44.120Z,10.27
2024-05-09T03:43:11.195Z,10.17
2024-05-09T03:45:38.276Z,10.70
2024-05-09T03:48:05.702Z,11.30
2024-05-09T03:50:35.676Z,10.93
2024-05-09T03:53:04.087Z,10.70
2024-05-09T03:55:31.385Z,10.17
2024-05-09T03:57:58.830Z,10.90
2024-05-09T04:00:34.500Z,10.00
2024-05-09T04:03:07.757Z,10.30
2024-05-09T04:05:38.325Z,10.60
2024-05-09T04:08:06.190Z,10.70
2024-05-09T04:10:34.867Z,10.90
2024-05-09T04:13:03.707Z,9.77
2024-05-09T04:15:31.669Z,10.27
2024-05-09T04:17:59.110Z,7.90
2024-05-09T04:20:37.259Z,9.57
2024-05-09T04:23:08.738Z,10.40
2024-05-09T04:25:37.228Z,9.13
2024-05-09T04:28:04.960Z,9.67
2024-05-09T04:30:38.044Z,10.23
2024-05-09T04:33:10.138Z,9.53
2024-05-09T04:35:39.436Z,9.70
2024-05-09T04:38:06.954Z,9.93
2024-05-09T04:40:36.613Z,9.20
2024-05-09T04:43:14.481Z,9.90
2024-05-09T04:45:42.022Z,10.40
2024-05-09T04:48:09.502Z,9.67
2024-05-09T04:50:39.046Z,9.77
2024-05-09T04:53:10.767Z,9.03
2024-05-09T04:55:39.591Z,9.20
2024-05-09T04:58:10.257Z,9.90
2024-05-09T05:00:40.054Z,10.00
2024-05-09T05:03:10.808Z,11.33
2024-05-09T05:05:41.042Z,12.37
2024-05-09T05:08:17.028Z,10.33
2024-05-09T05:10:46.060Z,13.27
2024-05-09T05:13:20.395Z,12.80
2024-05-09T05:15:53.799Z,13.73
2024-05-09T05:18:21.986Z,15.20
2024-05-09T05:20:49.517Z,14.70
2024-05-09T05:23:19.687Z,15.57
2024-05-09T05:25:52.802Z,14.70
2024-05-09T05:28:20.771Z,12.67
2024-05-09T05:30:47.943Z,11.20
2024-05-09T05:33:16.255Z,11.20
2024-05-09T05:35:43.595Z,11.60
2024-05-09T05:38:11.321Z,12.10
2024-05-09T05:40:40.046Z,11.20
2024-05-09T05:43:09.935Z,10.80
2024-05-09T05:45:37.775Z,11.10
2024-05-09T05:48:06.624Z,11.47
2024-05-09T05:50:37.134Z,11.77
2024-05-09T05:53:06.898Z,11.40
2024-05-09T05:55:34.496Z,11.90
2024-05-09T05:58:02.548Z,12.70
2024-05-09T06:00:37.351Z,10.73
2024-05-09T06:03:07.242Z,10.63
2024-05-09T06:05:35.404Z,11.77
2024-05-09T06:08:02.702Z,11.30
2024-05-09T06:10:37.542Z,11.67
2024-05-09T06:13:07.616Z,12.30
2024-05-09T06:15:34.947Z,12.20
2024-05-09T06:18:04.911Z,12.23
2024-05-09T06:20:36.397Z,11.47
2024-05-09T06:23:06.651Z,11.40
2024-05-09T06:25:34.928Z,12.60
2024-05-09T06:28:02.535Z,11.20
2024-05-09T06:30:37.239Z,10.93
2024-05-09T06:33:08.753Z,11.30
2024-05-09T06:35:36.799Z,11.37
2024-05-09T06:38:04.574Z,11.90
2024-05-09T06:40:37.793Z,12.03
2024-05-09T06:43:18.345Z,11.23
2024-05-09T06:45:48.479Z,9.80
2024-05-09T06:48:18.780Z,9.20
2024-05-09T06:50:46.467Z,9.10
2024-05-09T06:53:17.412Z,10.80
2024-05-09T06:55:44.838Z,12.43
2024-05-09T06:58:12.202Z,12.17
2024-05-09T07:00:41.506Z,10.77
2024-05-09T07:03:11.151Z,9.90
2024-05-09T07:05:39.419Z,9.97
2024-05-09T07:08:07.187Z,9.10
2024-05-09T07:10:36.215Z,8.33
2024-05-09T07:13:11.341Z,9.70
2024-05-09T07:15:39.053Z,9.00
2024-05-09T07:18:18.060Z,10.00
2024-05-09T07:20:47.516Z,8.37
2024-05-09T07:23:15.702Z,8.13
2024-05-09T07:25:43.163Z,7.27
2024-05-09T07:28:13.306Z,7.13
2024-05-09T07:30:40.535Z,8.10
2024-05-09T07:33:07.823Z,7.60
2024-05-09T07:35:35.326Z,8.00
2024-05-09T07:38:02.507Z,8.63
2024-05-09T07:40:35.791Z,8.13
2024-05-09T07:43:05.034Z,8.47
2024-05-09T07:52:22.959Z,8.80
2024-05-09T07:53:39.393Z,7.50
2024-05-09T07:56:10.215Z,8.50
2024-05-09T07:58:38.935Z,8.10
2024-05-09T08:01:06.533Z,7.60
2024-05-09T08:03:34.529Z,8.50
2024-05-09T08:06:01.912Z,8.67
2024-05-09T08:08:29.046Z,8.43
2024-05-09T08:10:56.217Z,7.50
2024-05-09T08:13:23.546Z,7.90
2024-05-09T08:15:51.901Z,8.30
2024-05-09T08:18:20.332Z,7.47
2024-05-09T08:20:48.973Z,7.83
2024-05-09T08:23:16.291Z,7.77
2024-05-09T08:25:43.352Z,8.10
2024-05-09T08:28:13.537Z,7.20
2024-05-09T08:30:41.021Z,8.20
2024-05-09T08:33:08.923Z,7.17
2024-05-09T08:35:36.581Z,6.80
2024-05-09T08:38:05.155Z,7.60
2024-05-09T08:40:35.931Z,6.83
2024-05-09T08:43:10.462Z,6.47
2024-05-09T08:45:43.622Z,7.00
2024-05-09T08:48:16.268Z,5.50
2024-05-09T08:50:45.154Z,5.67
2024-05-09T08:53:14.787Z,4.93
2024-05-09T08:55:43.929Z,5.07
2024-05-09T08:58:19.877Z,4.13
2024-05-09T09:00:48.226Z,5.20
2024-05-09T09:03:19.938Z,4.13
2024-05-09T09:05:59.661Z,5.23
2024-05-09T09:08:27.058Z,5.37
2024-05-09T09:10:58.900Z,5.83
2024-05-09T09:13:26.920Z,5.10
2024-05-09T09:15:58.048Z,4.57
2024-05-09T09:18:30.415Z,5.03
2024-05-09T09:20:57.816Z,5.00
2024-05-09T09:23:28.097Z,5.90
2024-05-09T09:26:01.554Z,3.87
2024-05-09T09:28:29.677Z,3.97
2024-05-09T09:31:03.682Z,3.57
2024-05-09T09:33:36.281Z,3.67
2024-05-09T09:36:05.011Z,2.73
2024-05-09T09:38:36.751Z,3.40
2024-05-09T09:41:07.389Z,2.80
2024-05-09T09:43:36.584Z,3.03
2024-05-09T09:46:04.499Z,2.93
2024-05-09T09:48:33.212Z,3.70
2024-05-09T09:51:00.725Z,2.20
2024-05-09T09:53:32.225Z,2.70
2024-05-09T09:55:59.473Z,2.30
2024-05-09T09:58:27.744Z,2.47
2024-05-09T10:00:54.959Z,2.40
2024-05-09T10:03:22.363Z,2.60
2024-05-09T10:05:49.750Z,4.47
2024-05-09T10:08:17.997Z,2.70
2024-05-09T10:10:48.971Z,3.27
2024-05-09T10:13:16.528Z,3.10
2024-05-09T10:15:48.472Z,2.43
2024-05-09T10:18:16.126Z,2.57
2024-05-09T10:20:44.813Z,3.10
2024-05-09T10:23:29.506Z,2.63
2024-05-09T10:26:05.670Z,1.90
2024-05-09T10:28:35.269Z,2.87
2024-05-09T10:31:13.753Z,2.80
2024-05-09T10:33:52.477Z,2.83
2024-05-09T10:36:24.859Z,2.60
2024-05-09T10:38:53.382Z,2.60
2024-05-09T10:41:21.497Z,2.77
2024-05-09T10:43:49.415Z,3.20
2024-05-09T10:46:16.963Z,3.10
2024-05-09T10:48:44.784Z,2.47
2024-05-09T10:51:12.268Z,2.53
2024-05-09T10:53:46.888Z,2.77
2024-05-09T10:56:14.889Z,2.80
2024-05-09T10:58:42.105Z,3.70
2024-05-09T11:01:10.397Z,2.13
2024-05-09T11:03:38.990Z,3.10
2024-05-09T11:06:07.301Z,2.17
2024-05-09T11:08:35.500Z,2.67
2024-05-09T11:11:07.481Z,2.10
2024-05-09T11:13:39.647Z,2.30
2024-05-09T11:16:19.420Z,2.20
2024-05-09T11:18:55.556Z,2.80
2024-05-09T11:21:23.039Z,2.47
2024-05-09T11:23:50.427Z,2.10
2024-05-09T11:26:20.801Z,2.30
2024-05-09T11:28:48.249Z,2.60
2024-05-09T11:31:15.530Z,2.63
2024-05-09T11:33:47.578Z,2.00
2024-05-09T11:36:15.291Z,2.87
2024-05-09T11:38:43.011Z,2.30
2024-05-09T11:41:17.354Z,2.20
2024-05-09T11:43:44.624Z,2.13
2024-05-09T11:46:12.647Z,2.37
2024-05-09T11:48:40.324Z,2.57
2024-05-09T11:51:07.918Z,2.57
2024-05-09T11:53:35.031Z,2.27
2024-05-09T11:56:02.263Z,2.30
2024-05-09T11:58:34.626Z,2.10
2024-05-09T12:01:03.930Z,2.20
2024-05-09T12:03:31.562Z,2.27
2024-05-09T12:05:59.173Z,2.60
2024-05-09T12:08:26.716Z,2.57
2024-05-09T12:10:54.092Z,2.40
2024-05-09T12:13:21.486Z,2.23
2024-05-09T12:15:48.821Z,2.17
2024-05-09T12:18:16.008Z,2.20
2024-05-09T12:20:43.383Z,2.23
2024-05-09T12:23:10.864Z,2.47
2024-05-09T12:25:39.535Z,1.83
2024-05-09T12:28:07.977Z,2.30
2024-05-09T12:30:39.791Z,2.17
2024-05-09T12:33:09.869Z,2.27
2024-05-09T12:35:37.706Z,2.40
2024-05-09T12:38:05.324Z,2.90
2024-05-09T12:40:36.825Z,2.30
2024-05-09T12:43:10.279Z,2.17
2024-05-09T12:45:38.973Z,2.70
2024-05-09T12:48:11.752Z,2.37
2024-05-09T12:50:40.420Z,2.23
2024-05-09T12:53:07.765Z,3.13
2024-05-09T12:55:43.893Z,1.90
2024-05-09T12:58:17.325Z,2.43
2024-05-09T13:00:45.498Z,2.10
2024-05-09T13:03:13.119Z,2.60
2024-05-09T13:05:45.369Z,2.37
2024-05-09T13:08:13.606Z,1.73
2024-05-09T13:10:41.079Z,2.07
2024-05-09T13:13:10.266Z,2.10
2024-05-09T13:15:37.861Z,2.33
2024-05-09T13:18:05.997Z,2.37
2024-05-09T13:20:35.492Z,2.53
2024-05-09T13:23:08.243Z,2.30
2024-05-09T13:25:38.033Z,2.80
2024-05-09T13:28:06.262Z,2.13
2024-05-09T13:30:39.701Z,2.60
2024-05-09T13:33:13.570Z,2.53
2024-05-09T13:35:46.804Z,2.37
2024-05-09T13:38:17.232Z,2.20
2024-05-09T13:40:44.849Z,2.00
2024-05-09T13:43:12.383Z,1.70
2024-05-09T13:45:40.054Z,2.40
2024-05-09T13:48:09.794Z,2.17
2024-05-09T13:50:37.623Z,2.07
2024-05-09T13:53:06.983Z,2.10
2024-05-09T13:55:37.766Z,1.90
2024-05-09T13:58:05.410Z,2.37
2024-05-09T14:00:43.664Z,2.10
2024-05-09T14:03:16.346Z,2.20
2024-05-09T14:05:44.786Z,2.60
2024-05-09T14:08:12.262Z,2.40
2024-05-09T14:10:44.506Z,2.50
2024-05-09T14:13:13.041Z,2.70
2024-05-09T14:15:40.929Z,2.63
2024-05-09T14:18:12.392Z,2.00
2024-05-09T14:20:41.341Z,2.10
2024-05-09T14:23:08.507Z,1.73
2024-05-09T14:25:39.920Z,1.90
2024-05-09T14:28:09.861Z,1.70
2024-05-09T14:30:38.596Z,1.93
2024-05-09T14:33:07.786Z,2.20
2024-05-09T14:35:37.833Z,2.57
2024-05-09T14:38:05.458Z,2.50
2024-05-09T14:40:41.219Z,2.07
2024-05-09T14:43:15.229Z,2.80
2024-05-09T14:45:43.859Z,2.10
2024-05-09T14:48:11.959Z,2.20
2024-05-09T14:50:40.650Z,2.70
2024-05-09T14:53:09.881Z,2.20
2024-05-09T14:55:39.840Z,1.90
2024-05-09T14:58:08.796Z,2.07
2024-05-09T15:00:41.297Z,2.13
2024-05-09T15:03:11.882Z,2.03
2024-05-09T15:05:39.216Z,2.20
2024-05-09T15:08:07.485Z,2.13
2024-05-09T15:10:36.514Z,2.30
2024-05-09T15:13:07.136Z,2.10
2024-05-09T15:15:36.210Z,3.00
2024-05-09T15:18:04.928Z,3.00
2024-05-09T15:20:36.027Z,2.17
2024-05-09T15:23:06.053Z,2.20
2024-05-09T15:25:34.329Z,2.07
2024-05-09T15:28:01.724Z,2.20
2024-05-09T15:30:32.124Z,2.13
2024-05-09T15:33:03.681Z,2.47
2024-05-09T15:35:31.357Z,2.57
2024-05-09T15:37:58.612Z,2.30
2024-05-09T15:40:35.161Z,2.53
2024-05-09T15:43:07.785Z,2.57
2024-05-09T15:45:35.704Z,2.43
2024-05-09T15:48:04.220Z,2.90
2024-05-09T15:50:37.435Z,4.00
2024-05-09T15:53:09.091Z,3.50
2024-05-09T15:55:37.049Z,2.40
2024-05-09T15:58:04.883Z,2.70
2024-05-09T16:00:38.455Z,2.77
2024-05-09T16:03:10.096Z,2.60
2024-05-09T16:05:38.038Z,2.87
2024-05-09T16:08:06.658Z,2.27
2024-05-09T16:10:34.942Z,4.07
2024-05-09T16:13:03.449Z,3.27
2024-05-09T16:15:31.277Z,3.30
2024-05-09T16:17:58.679Z,2.83
2024-05-09T16:20:34.850Z,2.17
2024-05-09T16:23:08.072Z,2.70
2024-05-09T16:25:35.735Z,3.10
2024-05-09T16:28:07.032Z,4.77
2024-05-09T16:30:37.064Z,4.27
2024-05-09T16:33:05.519Z,3.90
2024-05-09T16:35:34.865Z,2.90
2024-05-09T16:38:03.528Z,3.20
2024-05-09T16:40:37.804Z,4.03
2024-05-09T16:43:08.849Z,3.90
2024-05-09T16:45:36.826Z,5.30
2024-05-09T16:48:04.722Z,3.87
2024-05-09T16:50:34.510Z,5.30
2024-05-09T16:53:04.151Z,4.97
2024-05-09T16:55:32.483Z,9.20
2024-05-09T16:57:59.774Z,5.97
2024-05-09T17:00:36.623Z,4.03
2024-05-09T17:03:10.037Z,4.83
2024-05-09T17:05:38.305Z,7.67
2024-05-09T17:08:06.256Z,5.03
2024-05-09T17:10:35.108Z,3.30
2024-05-09T17:13:04.689Z,2.90
2024-05-09T17:15:33.548Z,2.97
2024-05-09T17:18:01.527Z,6.60
2024-05-09T17:20:33.628Z,5.37
2024-05-09T17:23:05.766Z,3.67
2024-05-09T17:25:34.354Z,3.20
2024-05-09T17:28:07.649Z,2.80
2024-05-09T17:30:37.775Z,3.17
2024-05-09T17:33:08.221Z,3.40
2024-05-09T17:35:36.769Z,3.10
2024-05-09T17:38:05.580Z,3.23
2024-05-09T17:40:36.040Z,3.30
2024-05-09T17:43:06.647Z,3.90
2024-05-09T17:45:37.792Z,3.27
2024-05-09T17:48:05.538Z,3.27
2024-05-09T17:50:36.051Z,3.23
2024-05-09T17:53:08.694Z,4.23
2024-05-09T17:55:36.415Z,8.23
2024-05-09T17:58:04.841Z,4.37
2024-05-09T18:00:38.207Z,4.17
2024-05-09T18:03:09.028Z,17.20
2024-05-09T18:05:37.476Z,19.20
2024-05-09T18:08:06.334Z,12.00
2024-05-09T18:10:37.779Z,5.33
2024-05-09T18:13:13.664Z,4.30
2024-05-09T18:15:41.261Z,3.40
2024-05-09T18:18:09.563Z,3.00
2024-05-09T18:20:42.649Z,2.70
2024-05-09T18:23:14.647Z,3.30
2024-05-09T18:25:43.130Z,4.33
2024-05-09T18:28:10.518Z,2.87
2024-05-09T18:30:38.021Z,2.90
2024-05-09T18:33:07.792Z,2.50
2024-05-09T18:35:36.626Z,3.20
2024-05-09T18:38:05.061Z,3.43
2024-05-09T18:40:36.131Z,3.67
2024-05-09T18:43:07.486Z,3.30
2024-05-09T18:45:39.289Z,3.47
2024-05-09T18:48:08.519Z,3.60
2024-05-09T18:50:39.421Z,2.53
2024-05-09T18:53:10.851Z,2.90
2024-05-09T18:55:38.744Z,3.23
2024-05-09T18:58:05.903Z,2.97
2024-05-09T19:00:36.960Z,3.00
2024-05-09T19:03:10.445Z,2.60
2024-05-09T19:05:40.679Z,3.67
2024-05-09T19:08:08.677Z,4.07
2024-05-09T19:10:37.718Z,3.97
2024-05-09T19:13:09.333Z,3.10
2024-05-09T19:15:40.382Z,3.20
2024-05-09T19:18:08.317Z,3.10
2024-05-09T19:20:36.858Z,3.20
2024-05-09T19:23:06.426Z,2.40
2024-05-09T19:25:34.780Z,3.80
2024-05-09T19:28:02.203Z,3.50
2024-05-09T19:30:37.759Z,2.67
2024-05-09T19:33:09.595Z,3.23
2024-05-09T19:35:37.567Z,2.87
2024-05-09T19:38:05.427Z,3.83
2024-05-09T19:40:34.259Z,3.60
2024-05-09T19:43:03.307Z,3.40
2024-05-09T19:45:32.540Z,3.20
2024-05-09T19:48:00.193Z,3.30
2024-05-09T19:50:36.830Z,3.40
2024-05-09T19:53:10.203Z,3.17
2024-05-09T19:55:37.851Z,3.93
2024-05-09T19:58:07.698Z,5.60
2024-05-09T20:00:38.029Z,4.20
2024-05-09T20:03:07.790Z,4.07
2024-05-09T20:05:35.448Z,3.60
2024-05-09T20:08:03.002Z,3.10
2024-05-09T20:10:33.036Z,3.20
2024-05-09T20:13:02.747Z,3.40
2024-05-09T20:15:31.105Z,3.13
2024-05-09T20:17:58.577Z,3.33
2024-05-09T20:20:33.778Z,3.37
2024-05-09T20:23:06.460Z,3.33
2024-05-09T20:25:33.611Z,3.80
2024-05-09T20:28:01.039Z,3.50
2024-05-09T20:30:32.391Z,4.07
2024-05-09T20:33:05.462Z,4.60
2024-05-09T20:35:34.208Z,3.80
2024-05-09T20:38:02.692Z,3.30
2024-05-09T20:40:35.161Z,3.60
2024-05-09T20:43:06.670Z,3.03
2024-05-09T20:45:34.770Z,2.63
2024-05-09T20:48:02.570Z,4.10
2024-05-09T20:50:37.249Z,3.87
2024-05-09T20:53:09.823Z,2.83
2024-05-09T20:55:37.146Z,3.13
2024-05-09T20:58:04.484Z,3.50
2024-05-09T21:00:39.912Z,3.90
2024-05-09T21:03:11.067Z,3.40
2024-05-09T21:05:38.946Z,3.93
2024-05-09T21:08:06.906Z,3.73
2024-05-09T21:10:35.268Z,3.50
2024-05-09T21:13:03.610Z,3.10
2024-05-09T21:15:31.855Z,3.50
2024-05-09T21:17:59.447Z,3.73
2024-05-09T21:22:57.643Z,3.70
2024-05-09T21:25:24.895Z,4.43
2024-05-09T21:27:52.150Z,4.57
2024-05-09T21:30:32.158Z,3.23
2024-05-09T21:33:13.374Z,3.70
2024-05-09T21:35:45.286Z,3.93
2024-05-09T21:38:14.236Z,4.90
2024-05-09T21:40:42.202Z,3.93
2024-05-09T21:43:09.540Z,3.93
2024-05-09T21:45:37.283Z,3.90
2024-05-09T21:48:05.811Z,3.77
2024-05-09T21:50:39.709Z,3.60
2024-05-09T21:53:10.040Z,3.30
2024-05-09T21:55:37.271Z,3.27
2024-05-09T21:58:04.644Z,3.60
2024-05-09T22:00:36.637Z,4.10
2024-05-09T22:03:10.517Z,2.73
2024-05-09T22:05:42.075Z,3.47
2024-05-09T22:08:10.044Z,3.50
2024-05-09T22:10:37.502Z,3.90
2024-05-09T22:13:06.363Z,4.40
2024-05-09T22:15:39.323Z,3.60
2024-05-09T22:18:11.034Z,4.17
2024-05-09T22:20:45.314Z,3.40
2024-05-09T22:23:13.681Z,3.50
2024-05-09T22:25:40.944Z,4.03
2024-05-09T22:28:08.287Z,3.07
2024-05-09T22:30:38.784Z,4.13
2024-05-09T22:33:11.876Z,3.27
2024-05-09T22:35:40.428Z,2.80
2024-05-09T22:38:08.046Z,3.50
2024-05-09T22:40:45.408Z,3.50
2024-05-09T22:43:24.011Z,3.70
2024-05-09T22:45:55.670Z,2.90
2024-05-09T22:48:24.549Z,3.27
2024-05-09T22:50:52.189Z,4.27
2024-05-09T22:53:19.467Z,3.50
2024-05-09T22:55:46.532Z,3.40
2024-05-09T22:58:13.641Z,2.87
2024-05-09T23:00:40.789Z,3.43
2024-05-09T23:03:07.954Z,3.67
2024-05-09T23:05:35.117Z,2.77
2024-05-09T23:08:03.478Z,3.67
2024-05-09T23:10:36.111Z,3.37
2024-05-09T23:13:06.777Z,3.47
2024-05-09T23:15:34.779Z,3.50
2024-05-09T23:18:01.971Z,3.10
2024-05-09T23:20:36.413Z,2.80
2024-05-09T23:23:07.077Z,3.03
2024-05-09T23:25:34.753Z,2.83
2024-05-09T23:28:02.036Z,4.27
2024-05-09T23:30:37.052Z,3.07
2024-05-09T23:33:07.546Z,3.50
2024-05-09T23:35:34.899Z,3.20
2024-05-09T23:38:02.030Z,3.80
2024-05-09T23:42:59.150Z,3.30
2024-05-09T23:45:26.313Z,3.50
2024-05-09T23:47:53.744Z,3.60
2024-05-09T23:50:26.752Z,4.10
2024-05-09T23:53:00.752Z,4.00
2024-05-09T23:55:28.714Z,3.30
2024-05-09T23:57:55.876Z,3.10
